createdAt,value
2022-07-27T00:00:00.000Z,79.15
2022-07-27T00:15:00.000Z,78.26
2022-07-27T00:30:00.000Z,78.65
2022-07-27T00:45:00.000Z,78.8
2022-07-27T01:00:00.000Z,78.71
2022-07-27T01:15:00.000Z,78.54
2022-07-27T01:30:00.000Z,78.67
2022-07-27T01:45:00.000Z,78.98
2022-07-27T02:00:00.000Z,78.45
2022-07-27T02:15:00.000Z,79.26
2022-07-27T02:30:00.000Z,78.84
2022-07-27T02:45:00.000Z,77.73
2022-07-27T03:00:00.000Z,76.92
2022-07-27T03:15:00.000Z,77.82
2022-07-27T03:30:00.000Z,77.71
2022-07-27T03:45:00.000Z,77.13
2022-07-27T04:00:00.000Z,76.4
2022-07-27T04:15:00.000Z,76.66
2022-07-27T04:30:00.000Z,77.91
2022-07-27T04:45:00.000Z,77.98
2022-07-27T05:00:00.000Z,74.39
2022-07-27T05:15:00.000Z,71.55
2022-07-27T05:30:00.000Z,70.31
2022-07-27T05:45:00.000Z,69.48
2022-07-27T06:00:00.000Z,68
2022-07-27T06:15:00.000Z,65.3
2022-07-27T06:30:00.000Z,64.16
2022-07-27T06:45:00.000Z,63.52
2022-07-27T07:00:00.000Z,61.87
2022-07-27T07:15:00.000Z,61.9
2022-07-27T07:30:00.000Z,59.12
2022-07-27T07:45:00.000Z,59.83
2022-07-27T08:00:00.000Z,56.56
2022-07-27T08:15:00.000Z,56.86
2022-07-27T08:30:00.000Z,54.67
2022-07-27T08:45:00.000Z,53.82
2022-07-27T09:00:00.000Z,50.09
2022-07-27T09:15:00.000Z,51.43
2022-07-27T09:30:00.000Z,52.51
2022-07-27T09:45:00.000Z,51.76
2022-07-27T10:00:00.000Z,51.96
2022-07-27T10:15:00.000Z,52.02
2022-07-27T10:30:00.000Z,51.21
2022-07-27T10:45:00.000Z,51.55
2022-07-27T11:00:00.000Z,51.18
2022-07-27T11:15:00.000Z,49.68
2022-07-27T11:30:00.000Z,49.22
2022-07-27T11:45:00.000Z,47.12
2022-07-27T12:00:00.000Z,47.63
2022-07-27T12:15:00.000Z,44.27
2022-07-27T12:30:00.000Z,43.36
2022-07-27T12:45:00.000Z,48.17
2022-07-27T13:00:00.000Z,46.95
2022-07-27T13:15:00.000Z,44.92
2022-07-27T13:30:00.000Z,43.35
2022-07-27T13:45:00.000Z,44.66
2022-07-27T14:00:00.000Z,45.64
2022-07-27T14:15:00.000Z,45.03
2022-07-27T14:30:00.000Z,45.73
2022-07-27T14:45:00.000Z,46.62
2022-07-27T15:00:00.000Z,46.97
2022-07-27T15:15:00.000Z,47.33
2022-07-27T15:30:00.000Z,47.33
2022-07-27T15:45:00.000Z,45.74
2022-07-27T16:00:00.000Z,46.67
2022-07-27T16:15:00.000Z,47.11
2022-07-27T16:30:00.000Z,48.08
2022-07-27T16:45:00.000Z,48.94
2022-07-27T17:00:00.000Z,48.49
2022-07-27T17:15:00.000Z,48.65
2022-07-27T17:30:00.000Z,49.56
2022-07-27T17:45:00.000Z,56.14
2022-07-27T18:00:00.000Z,60.86
2022-07-27T18:15:00.000Z,63.02
2022-07-27T18:30:00.000Z,64.33
2022-07-27T18:45:00.000Z,66.07
2022-07-27T19:00:00.000Z,66.94
2022-07-27T19:15:00.000Z,67.78
2022-07-27T19:30:00.000Z,68.7
2022-07-27T19:45:00.000Z,70.6
2022-07-27T20:00:00.000Z,71.77
2022-07-27T20:15:00.000Z,71.83
2022-07-27T20:30:00.000Z,71.7
2022-07-27T20:45:00.000Z,72.68
2022-07-27T21:00:00.000Z,72.99
2022-07-27T21:15:00.000Z,73.64
2022-07-27T21:30:00.000Z,74.79
2022-07-27T21:45:00.000Z,77.66
2022-07-27T22:00:00.000Z,77.31
2022-07-27T22:15:00.000Z,76.87
2022-07-27T22:30:00.000Z,76.52
2022-07-27T22:45:00.000Z,77.13
2022-07-27T23:00:00.000Z,78.63
2022-07-27T23:15:00.000Z,78.51
2022-07-27T23:30:00.000Z,78.29
2022-07-27T23:45:00.000Z,78.45
